createdAt,value
2016-11-16T00:00:02.072Z,6.01
2016-11-16T00:00:23.798Z,6.05
2016-11-16T00:00:45.626Z,6.05
2016-11-16T00:01:07.343Z,6.04
2016-11-16T00:01:29.064Z,6.05
2016-11-16T00:01:50.779Z,6.06
2016-11-16T00:02:12.508Z,6.06
2016-11-16T00:02:34.295Z,6.03
2016-11-16T00:02:56.036Z,6.05
2016-11-16T00:03:17.769Z,6.02
2016-11-16T00:03:39.506Z,6.02
2016-11-16T00:04:01.238Z,6.02
2016-11-16T00:04:22.968Z,6.03
2016-11-16T00:04:44.708Z,6.00
2016-11-16T00:05:06.439Z,6.04
2016-11-16T00:05:28.361Z,6.03
2016-11-16T00:05:50.080Z,6.05
2016-11-16T00:06:11.831Z,6.04
2016-11-16T00:06:33.551Z,6.04
2016-11-16T00:06:55.268Z,6.03
2016-11-16T00:07:16.996Z,6.03
2016-11-16T00:07:38.719Z,6.07
2016-11-16T00:08:00.458Z,6.05
2016-11-16T00:08:22.197Z,6.01
2016-11-16T00:08:43.913Z,6.05
2016-11-16T00:09:05.646Z,6.05
2016-11-16T00:09:27.364Z,5.99
2016-11-16T00:09:49.122Z,5.97
2016-11-16T00:10:10.843Z,6.04
2016-11-16T00:10:32.560Z,6.08
2016-11-16T00:10:54.273Z,6.05
2016-11-16T00:11:16.009Z,6.05
2016-11-16T00:11:37.732Z,6.06
2016-11-16T00:11:59.446Z,6.08
2016-11-16T00:12:21.172Z,6.06
2016-11-16T00:12:42.948Z,6.07
2016-11-16T00:13:04.679Z,6.08
2016-11-16T00:13:26.406Z,6.13
2016-11-16T00:13:48.132Z,6.14
2016-11-16T00:14:09.850Z,6.10
2016-11-16T00:14:31.569Z,6.09
2016-11-16T00:14:53.319Z,6.05
2016-11-16T00:15:15.041Z,6.07
2016-11-16T00:15:36.762Z,6.05
2016-11-16T00:15:58.492Z,6.09
2016-11-16T00:16:20.215Z,6.09
2016-11-16T00:16:41.943Z,6.07
2016-11-16T00:17:03.679Z,6.06
2016-11-16T00:17:25.408Z,6.09
2016-11-16T00:17:47.137Z,6.04
2016-11-16T00:18:08.852Z,6.07
2016-11-16T00:18:30.572Z,6.08
2016-11-16T00:18:52.299Z,6.11
2016-11-16T00:19:14.019Z,6.06
2016-11-16T00:19:35.753Z,6.12
2016-11-16T00:19:57.474Z,6.13
2016-11-16T00:20:19.194Z,6.10
2016-11-16T00:20:40.915Z,6.07
2016-11-16T00:21:02.653Z,6.10
2016-11-16T00:21:24.386Z,6.07
2016-11-16T00:21:46.103Z,6.09
2016-11-16T00:22:07.829Z,6.10
2016-11-16T00:22:29.550Z,6.07
2016-11-16T00:22:51.302Z,6.06
2016-11-16T00:23:13.064Z,6.10
2016-11-16T00:23:34.784Z,6.12
2016-11-16T00:23:56.500Z,6.12
2016-11-16T00:24:18.230Z,6.07
2016-11-16T00:24:39.951Z,6.06
2016-11-16T00:25:01.674Z,6.09
2016-11-16T00:25:23.404Z,6.09
2016-11-16T00:25:45.121Z,6.11
2016-11-16T00:26:06.841Z,6.12
2016-11-16T00:26:28.597Z,6.14
2016-11-16T00:26:50.317Z,6.11
2016-11-16T00:27:12.042Z,6.11
2016-11-16T00:27:33.760Z,6.10
2016-11-16T00:27:55.479Z,6.10
2016-11-16T00:28:17.224Z,6.16
2016-11-16T00:28:38.934Z,6.15
2016-11-16T00:29:00.662Z,6.15
2016-11-16T00:29:22.385Z,6.18
2016-11-16T00:29:44.107Z,6.19
2016-11-16T00:30:05.821Z,6.21
2016-11-16T00:30:27.544Z,6.19
2016-11-16T00:30:49.261Z,6.14
2016-11-16T00:31:10.981Z,6.13
2016-11-16T00:31:32.702Z,6.13
2016-11-16T00:31:54.419Z,6.16
2016-11-16T00:32:16.140Z,6.16
2016-11-16T00:32:37.860Z,6.15
2016-11-16T00:32:59.579Z,6.13
2016-11-16T00:33:21.306Z,6.16
2016-11-16T00:33:43.035Z,6.20
2016-11-16T00:34:04.757Z,6.16
2016-11-16T00:34:26.488Z,6.13
2016-11-16T00:34:48.349Z,6.09
2016-11-16T00:35:10.059Z,6.10
2016-11-16T00:35:31.875Z,6.13
2016-11-16T00:35:53.586Z,6.15
2016-11-16T00:36:15.304Z,6.19
2016-11-16T00:36:37.035Z,6.18
2016-11-16T00:36:58.762Z,6.20
2016-11-16T00:37:20.481Z,6.20
2016-11-16T00:37:42.233Z,6.13
2016-11-16T00:38:04.048Z,6.14
2016-11-16T00:38:25.791Z,6.15
2016-11-16T00:38:47.513Z,6.16
2016-11-16T00:39:09.245Z,6.23
2016-11-16T00:39:30.963Z,6.22
2016-11-16T00:39:52.682Z,6.23
2016-11-16T00:40:14.407Z,6.25
2016-11-16T00:40:36.128Z,6.22
2016-11-16T00:40:57.868Z,6.17
2016-11-16T00:41:19.597Z,6.18
2016-11-16T00:41:41.350Z,6.18
2016-11-16T00:42:03.075Z,6.21
2016-11-16T00:42:24.801Z,6.24
2016-11-16T00:43:13.030Z,6.19
2016-11-16T00:43:34.773Z,6.17
2016-11-16T00:43:56.502Z,6.16
2016-11-16T00:44:18.213Z,6.10
2016-11-16T00:44:39.931Z,6.14
2016-11-16T00:45:01.650Z,6.16
2016-11-16T00:45:23.369Z,6.20
2016-11-16T00:45:45.087Z,6.19
2016-11-16T00:46:06.862Z,6.17
2016-11-16T00:46:28.580Z,6.19
2016-11-16T00:46:50.296Z,6.20
2016-11-16T00:47:12.012Z,6.17
2016-11-16T00:47:33.743Z,6.20
2016-11-16T00:47:55.463Z,6.19
2016-11-16T00:48:17.193Z,6.23
2016-11-16T00:48:38.922Z,6.24
2016-11-16T00:49:00.643Z,6.26
2016-11-16T00:49:22.366Z,6.27
2016-11-16T00:49:44.089Z,6.21
2016-11-16T00:50:05.810Z,6.18
2016-11-16T00:50:27.531Z,6.17
2016-11-16T00:50:49.371Z,6.18
2016-11-16T00:51:11.104Z,6.17
2016-11-16T00:51:32.834Z,6.17
2016-11-16T00:51:54.551Z,6.21
2016-11-16T00:52:16.267Z,6.18
2016-11-16T00:52:37.994Z,6.20
2016-11-16T00:52:59.715Z,6.19
2016-11-16T00:53:21.435Z,6.21
2016-11-16T00:53:43.170Z,6.16
2016-11-16T00:54:04.909Z,6.18
2016-11-16T00:54:26.629Z,6.18
2016-11-16T00:54:48.365Z,6.18
2016-11-16T00:55:10.094Z,6.17
2016-11-16T00:55:31.823Z,6.16
2016-11-16T00:55:53.545Z,6.16
2016-11-16T00:56:15.269Z,6.20
2016-11-16T00:56:36.976Z,6.20
2016-11-16T00:56:58.725Z,6.19
2016-11-16T00:57:20.462Z,6.18
2016-11-16T00:57:42.167Z,6.17
2016-11-16T00:58:06.495Z,6.16
2016-11-16T00:58:28.217Z,6.16
2016-11-16T00:58:49.945Z,6.19
2016-11-16T00:59:11.684Z,6.17
2016-11-16T00:59:33.402Z,6.16
2016-11-16T00:59:55.121Z,6.17
2016-11-16T01:00:16.844Z,6.18
2016-11-16T01:00:38.561Z,6.26
2016-11-16T01:01:00.292Z,6.22
2016-11-16T01:01:22.011Z,6.19
2016-11-16T01:01:43.758Z,6.20
2016-11-16T01:02:05.473Z,6.26
2016-11-16T01:02:27.193Z,6.20
2016-11-16T01:02:48.917Z,6.19
2016-11-16T01:03:10.641Z,6.21
2016-11-16T01:03:32.362Z,6.22
2016-11-16T01:03:54.105Z,6.22
2016-11-16T01:04:15.835Z,6.24
2016-11-16T01:04:37.569Z,6.22
2016-11-16T01:04:59.303Z,6.22
2016-11-16T01:05:21.018Z,6.26
2016-11-16T01:05:42.741Z,6.24
2016-11-16T01:06:04.473Z,6.24
2016-11-16T01:06:26.201Z,6.26
2016-11-16T01:06:47.921Z,6.26
2016-11-16T01:07:09.642Z,6.24
2016-11-16T01:07:31.372Z,6.24
2016-11-16T01:07:53.086Z,6.24
2016-11-16T01:08:14.814Z,6.20
2016-11-16T01:08:36.564Z,6.26
2016-11-16T01:08:58.289Z,6.25
2016-11-16T01:09:20.020Z,6.20
2016-11-16T01:09:41.758Z,6.20
2016-11-16T01:10:03.479Z,6.25
2016-11-16T01:10:25.206Z,6.26
2016-11-16T01:10:47.055Z,6.26
2016-11-16T01:11:08.773Z,6.22
2016-11-16T01:11:30.499Z,6.22
2016-11-16T01:11:55.047Z,6.21
2016-11-16T01:12:16.766Z,6.21
2016-11-16T01:12:38.487Z,6.20
2016-11-16T01:13:00.204Z,6.21
2016-11-16T01:13:21.921Z,6.25
2016-11-16T01:13:43.637Z,6.26
2016-11-16T01:14:05.352Z,6.25
2016-11-16T01:14:27.079Z,6.24
2016-11-16T01:14:48.830Z,6.25
2016-11-16T01:15:10.553Z,6.21
2016-11-16T01:15:32.284Z,6.25
2016-11-16T01:15:54.008Z,6.29
2016-11-16T01:16:15.734Z,6.28
2016-11-16T01:16:37.468Z,6.28
2016-11-16T01:16:59.208Z,6.29
2016-11-16T01:17:20.917Z,6.33
2016-11-16T01:17:42.635Z,6.31
2016-11-16T01:18:04.356Z,6.27
2016-11-16T01:18:26.082Z,6.26
2016-11-16T01:18:47.799Z,6.24
2016-11-16T01:19:09.548Z,6.24
2016-11-16T01:19:31.273Z,6.22
2016-11-16T01:19:52.998Z,6.28
2016-11-16T01:20:14.739Z,6.30
2016-11-16T01:20:36.462Z,6.29
2016-11-16T01:20:58.179Z,6.29
2016-11-16T01:21:19.900Z,6.28
2016-11-16T01:21:41.624Z,6.31
2016-11-16T01:22:03.363Z,6.32
2016-11-16T01:22:25.084Z,6.30
2016-11-16T01:22:46.803Z,6.30
2016-11-16T01:23:08.524Z,6.30
2016-11-16T01:23:30.245Z,6.29
2016-11-16T01:23:51.991Z,6.30
2016-11-16T01:24:13.706Z,6.29
2016-11-16T01:24:35.432Z,6.31
2016-11-16T01:24:57.149Z,6.31
2016-11-16T01:25:18.869Z,6.28
2016-11-16T01:25:40.589Z,6.26
2016-11-16T01:26:02.316Z,6.28
2016-11-16T01:26:24.036Z,6.26
2016-11-16T01:26:45.755Z,6.27
2016-11-16T01:27:07.486Z,6.26
2016-11-16T01:27:29.216Z,6.31
2016-11-16T01:27:50.936Z,6.30
2016-11-16T01:28:12.657Z,6.25
2016-11-16T01:28:34.383Z,6.26
2016-11-16T01:28:56.103Z,6.23
2016-11-16T01:29:17.824Z,6.23
2016-11-16T01:29:39.547Z,6.28
2016-11-16T01:30:01.265Z,6.24
2016-11-16T01:30:22.982Z,6.26
2016-11-16T01:30:44.801Z,6.27
2016-11-16T01:31:06.523Z,6.26
2016-11-16T01:31:28.247Z,6.28
2016-11-16T01:31:49.968Z,6.24
2016-11-16T01:32:11.693Z,6.23
2016-11-16T01:32:33.420Z,6.24
2016-11-16T01:32:55.139Z,6.25
2016-11-16T01:33:17.051Z,6.25
2016-11-16T01:33:38.762Z,6.25
2016-11-16T01:34:00.499Z,6.28
2016-11-16T01:34:22.226Z,6.25
2016-11-16T01:34:43.947Z,6.29
2016-11-16T01:35:05.674Z,6.26
2016-11-16T01:35:27.559Z,6.26
2016-11-16T01:35:49.273Z,6.25
2016-11-16T01:36:10.989Z,6.28
2016-11-16T01:36:32.713Z,6.28
2016-11-16T01:36:54.432Z,6.27
2016-11-16T01:37:16.155Z,6.27
2016-11-16T01:37:37.888Z,6.28
2016-11-16T01:37:59.605Z,6.27
2016-11-16T01:38:23.976Z,6.29
2016-11-16T01:38:45.690Z,6.26
2016-11-16T01:39:07.419Z,6.27
2016-11-16T01:39:29.143Z,6.29
2016-11-16T01:39:55.631Z,6.30
2016-11-16T01:40:17.352Z,6.30
2016-11-16T01:40:39.072Z,6.30
2016-11-16T01:41:00.801Z,6.31
2016-11-16T01:41:22.522Z,6.35
2016-11-16T01:41:44.251Z,6.32
2016-11-16T01:42:05.971Z,6.29
2016-11-16T01:42:27.694Z,6.32
2016-11-16T01:42:49.416Z,6.31
2016-11-16T01:43:11.149Z,6.31
2016-11-16T01:43:32.870Z,6.39
2016-11-16T01:43:54.598Z,6.40
2016-11-16T01:44:16.329Z,6.38
2016-11-16T01:44:38.046Z,6.34
2016-11-16T01:44:59.785Z,6.37
2016-11-16T01:45:21.516Z,6.37
2016-11-16T01:45:43.231Z,6.36
2016-11-16T01:46:04.952Z,6.35
2016-11-16T01:46:27.036Z,6.37
2016-11-16T01:46:48.754Z,6.36
2016-11-16T01:47:10.488Z,6.36
2016-11-16T01:47:32.231Z,6.33
2016-11-16T01:47:53.956Z,6.33
2016-11-16T01:48:15.674Z,6.36
2016-11-16T01:48:37.406Z,6.38
2016-11-16T01:48:59.133Z,6.36
2016-11-16T01:49:20.858Z,6.35
2016-11-16T01:49:42.580Z,6.34
2016-11-16T01:50:04.300Z,6.32
2016-11-16T01:50:26.027Z,6.36
2016-11-16T01:50:47.747Z,6.41
2016-11-16T01:51:09.484Z,6.41
2016-11-16T01:51:31.208Z,6.35
2016-11-16T01:51:52.926Z,6.38
2016-11-16T01:52:14.646Z,6.39
2016-11-16T01:52:36.381Z,6.39
2016-11-16T01:52:58.123Z,6.37
2016-11-16T01:53:19.863Z,6.40
2016-11-16T01:53:41.572Z,6.39
2016-11-16T01:54:03.302Z,6.36
2016-11-16T01:54:25.038Z,6.34
2016-11-16T01:54:46.759Z,6.35
2016-11-16T01:55:08.479Z,6.39
2016-11-16T01:55:30.206Z,6.40
2016-11-16T01:55:51.950Z,6.37
2016-11-16T01:56:14.749Z,6.41
2016-11-16T01:56:36.567Z,6.42
2016-11-16T01:56:58.370Z,6.39
2016-11-16T01:57:20.096Z,6.38
2016-11-16T01:57:41.815Z,6.38
2016-11-16T01:58:03.539Z,6.41
2016-11-16T01:58:25.258Z,6.38
2016-11-16T01:58:46.985Z,6.39
2016-11-16T01:59:08.713Z,6.40
2016-11-16T01:59:30.444Z,6.38
2016-11-16T01:59:52.180Z,6.41
2016-11-16T02:00:13.893Z,6.44
2016-11-16T02:00:35.630Z,6.43
2016-11-16T02:00:57.353Z,6.42
2016-11-16T02:01:19.083Z,6.46
2016-11-16T02:01:40.797Z,6.44
2016-11-16T02:02:02.618Z,6.41
2016-11-16T02:02:24.351Z,6.38
2016-11-16T02:02:46.071Z,6.37
2016-11-16T02:03:07.829Z,6.42
2016-11-16T02:03:29.553Z,6.43
2016-11-16T02:03:51.333Z,6.41
2016-11-16T02:04:13.037Z,6.44
2016-11-16T02:04:34.759Z,6.45
2016-11-16T02:04:56.499Z,6.43
2016-11-16T02:05:18.215Z,6.40
2016-11-16T02:05:39.934Z,6.41
2016-11-16T02:06:01.665Z,6.42
2016-11-16T02:06:23.389Z,6.45
2016-11-16T02:06:45.111Z,6.47
2016-11-16T02:07:06.845Z,6.45
2016-11-16T02:07:28.569Z,6.42
2016-11-16T02:07:50.296Z,6.41
2016-11-16T02:08:12.007Z,6.41
2016-11-16T02:08:33.737Z,6.45
2016-11-16T02:08:55.451Z,6.42
2016-11-16T02:09:17.178Z,6.47
2016-11-16T02:09:43.664Z,6.46
2016-11-16T02:10:05.390Z,6.44
2016-11-16T02:10:27.110Z,6.49
2016-11-16T02:10:48.831Z,6.46
2016-11-16T02:11:10.550Z,6.42
2016-11-16T02:11:32.300Z,6.47
2016-11-16T02:11:54.018Z,6.46
2016-11-16T02:12:15.751Z,6.47
2016-11-16T02:12:37.466Z,6.47
2016-11-16T02:12:59.187Z,6.43
2016-11-16T02:13:20.910Z,6.43
2016-11-16T02:13:42.663Z,6.44
2016-11-16T02:14:04.389Z,6.49
2016-11-16T02:14:26.107Z,6.51
2016-11-16T02:14:47.832Z,6.48
2016-11-16T02:15:09.551Z,6.46
2016-11-16T02:15:31.279Z,6.46
2016-11-16T02:15:53.024Z,6.46
2016-11-16T02:16:14.742Z,6.44
2016-11-16T02:16:36.468Z,6.43
2016-11-16T02:16:58.204Z,6.44
2016-11-16T02:17:19.921Z,6.48
2016-11-16T02:17:41.636Z,6.48
2016-11-16T02:18:03.367Z,6.46
2016-11-16T02:18:25.086Z,6.49
2016-11-16T02:18:46.809Z,6.49
2016-11-16T02:19:08.535Z,6.45
2016-11-16T02:19:30.257Z,6.46
2016-11-16T02:19:51.977Z,6.46
2016-11-16T02:20:13.712Z,6.43
2016-11-16T02:20:35.446Z,6.44
2016-11-16T02:20:57.163Z,6.45
2016-11-16T02:21:18.897Z,6.44
2016-11-16T02:21:40.621Z,6.42
2016-11-16T02:22:02.342Z,6.43
2016-11-16T02:22:24.264Z,6.46
2016-11-16T02:22:45.981Z,6.46
2016-11-16T02:23:07.701Z,6.45
2016-11-16T02:23:29.432Z,6.46
2016-11-16T02:23:51.173Z,6.51
2016-11-16T02:24:12.885Z,6.51
2016-11-16T02:24:34.615Z,6.55
2016-11-16T02:24:56.329Z,6.47
2016-11-16T02:25:18.059Z,6.49
2016-11-16T02:25:39.764Z,6.54
2016-11-16T02:26:01.499Z,6.52
2016-11-16T02:26:23.227Z,6.53
2016-11-16T02:26:44.956Z,6.55
2016-11-16T02:27:06.693Z,6.51
2016-11-16T02:27:28.475Z,6.53
2016-11-16T02:27:50.419Z,6.49
2016-11-16T02:28:12.129Z,6.51
2016-11-16T02:28:33.846Z,6.55
2016-11-16T02:28:55.566Z,6.54
2016-11-16T02:29:17.295Z,6.56
2016-11-16T02:29:39.021Z,6.56
2016-11-16T02:30:00.754Z,6.51
2016-11-16T02:30:22.487Z,6.48
2016-11-16T02:30:44.206Z,6.52
2016-11-16T02:31:05.928Z,6.51
2016-11-16T02:31:27.657Z,6.48
2016-11-16T02:31:49.384Z,6.49
2016-11-16T02:32:11.121Z,6.57
2016-11-16T02:32:32.836Z,6.58
2016-11-16T02:32:54.583Z,6.58
2016-11-16T02:33:16.316Z,6.56
2016-11-16T02:33:38.038Z,6.57
2016-11-16T02:33:59.753Z,6.58
2016-11-16T02:34:21.500Z,6.58
2016-11-16T02:34:43.215Z,6.60
2016-11-16T02:35:04.942Z,6.59
2016-11-16T02:35:26.674Z,6.55
2016-11-16T02:35:48.404Z,6.55
2016-11-16T02:36:10.150Z,6.62
2016-11-16T02:36:31.942Z,6.62
2016-11-16T02:36:53.656Z,6.57
2016-11-16T02:37:15.375Z,6.59
2016-11-16T02:37:37.095Z,6.63
2016-11-16T02:37:58.813Z,6.59
2016-11-16T02:38:20.537Z,6.56
2016-11-16T02:38:42.262Z,6.57
2016-11-16T02:39:04.010Z,6.59
2016-11-16T02:39:25.739Z,6.57
2016-11-16T02:39:47.461Z,6.58
2016-11-16T02:40:09.191Z,6.57
2016-11-16T02:40:30.906Z,6.62
2016-11-16T02:40:52.624Z,6.62
2016-11-16T02:41:14.596Z,6.57
2016-11-16T02:41:36.324Z,6.56
2016-11-16T02:41:58.051Z,6.58
2016-11-16T02:42:19.785Z,6.55
2016-11-16T02:42:41.501Z,6.57
2016-11-16T02:43:03.217Z,6.60
2016-11-16T02:43:24.936Z,6.59
2016-11-16T02:43:46.656Z,6.57
2016-11-16T02:44:08.378Z,6.58
2016-11-16T02:44:30.096Z,6.56
2016-11-16T02:44:51.831Z,6.57
2016-11-16T02:45:13.548Z,6.59
2016-11-16T02:45:35.286Z,6.55
2016-11-16T02:45:57.089Z,6.54
2016-11-16T02:46:18.804Z,6.52
2016-11-16T02:46:40.546Z,6.54
2016-11-16T02:47:02.266Z,6.54
2016-11-16T02:47:23.998Z,6.52
2016-11-16T02:47:45.720Z,6.55
2016-11-16T02:48:07.451Z,6.62
2016-11-16T02:48:29.170Z,6.60
2016-11-16T02:48:50.910Z,6.60
2016-11-16T02:49:12.636Z,6.60
2016-11-16T02:49:34.388Z,6.56
2016-11-16T02:49:56.119Z,6.58
2016-11-16T02:50:17.866Z,6.57
2016-11-16T02:50:39.587Z,6.53
2016-11-16T02:51:01.319Z,6.57
2016-11-16T02:51:23.039Z,6.55
2016-11-16T02:51:44.755Z,6.57
2016-11-16T02:52:06.475Z,6.57
2016-11-16T02:52:54.686Z,6.55
2016-11-16T02:53:16.406Z,6.57
2016-11-16T02:53:38.132Z,6.55
2016-11-16T02:53:59.872Z,6.51
2016-11-16T02:54:21.598Z,6.53
2016-11-16T02:54:43.315Z,6.54
2016-11-16T02:55:05.029Z,6.57
2016-11-16T02:55:26.749Z,6.56
2016-11-16T02:55:48.469Z,6.58
2016-11-16T02:56:10.199Z,6.55
2016-11-16T02:56:31.930Z,6.51
2016-11-16T02:56:53.658Z,6.56
2016-11-16T02:57:15.375Z,6.56
2016-11-16T02:57:37.119Z,6.55
2016-11-16T02:57:58.837Z,6.59
2016-11-16T02:58:20.576Z,6.55
2016-11-16T02:58:42.317Z,6.57
2016-11-16T02:59:04.033Z,6.53
2016-11-16T02:59:25.763Z,6.56
2016-11-16T02:59:47.485Z,6.54
2016-11-16T03:00:09.208Z,6.55
2016-11-16T03:00:30.919Z,6.54
2016-11-16T03:00:52.645Z,6.56
2016-11-16T03:01:16.987Z,6.55
2016-11-16T03:01:38.712Z,6.51
2016-11-16T03:02:00.439Z,6.57
2016-11-16T03:02:22.210Z,6.52
2016-11-16T03:02:43.941Z,6.53
2016-11-16T03:03:08.641Z,6.55
2016-11-16T03:03:30.355Z,6.58
2016-11-16T03:03:52.080Z,6.58
2016-11-16T03:04:13.797Z,6.55
2016-11-16T03:04:35.518Z,6.54
2016-11-16T03:04:57.247Z,6.57
2016-11-16T03:05:18.964Z,6.57
2016-11-16T03:05:40.683Z,6.55
2016-11-16T03:06:02.419Z,6.58
2016-11-16T03:06:24.163Z,6.54
2016-11-16T03:06:45.894Z,6.54
2016-11-16T03:07:07.621Z,6.59
2016-11-16T03:07:29.350Z,6.58
2016-11-16T03:07:51.071Z,6.56
2016-11-16T03:08:12.790Z,6.57
2016-11-16T03:08:34.505Z,6.59
2016-11-16T03:08:56.229Z,6.62
2016-11-16T03:09:17.956Z,6.61
2016-11-16T03:09:39.678Z,6.62
2016-11-16T03:10:01.448Z,6.55
2016-11-16T03:10:23.167Z,6.57
2016-11-16T03:10:44.903Z,6.59
2016-11-16T03:11:06.618Z,6.57
2016-11-16T03:11:28.330Z,6.58
2016-11-16T03:11:50.057Z,6.60
2016-11-16T03:12:11.781Z,6.58
2016-11-16T03:12:33.508Z,6.57
2016-11-16T03:12:55.220Z,6.57
2016-11-16T03:13:16.960Z,6.59
2016-11-16T03:13:38.692Z,6.56
2016-11-16T03:14:00.411Z,6.57
2016-11-16T03:14:22.129Z,6.57
2016-11-16T03:14:43.865Z,6.58
2016-11-16T03:15:05.573Z,6.57
2016-11-16T03:15:27.304Z,6.57
2016-11-16T03:15:49.032Z,6.54
2016-11-16T03:16:10.746Z,6.58
2016-11-16T03:16:32.472Z,6.57
2016-11-16T03:16:54.193Z,6.57
2016-11-16T03:17:15.917Z,6.60
2016-11-16T03:17:37.634Z,6.60
2016-11-16T03:17:59.386Z,6.60
2016-11-16T03:18:21.100Z,6.61
2016-11-16T03:18:42.834Z,6.63
2016-11-16T03:19:04.547Z,6.62
2016-11-16T03:19:26.267Z,6.62
2016-11-16T03:19:47.991Z,6.62
2016-11-16T03:20:09.723Z,6.65
2016-11-16T03:20:31.447Z,6.60
2016-11-16T03:20:53.183Z,6.56
2016-11-16T03:21:14.905Z,6.58
2016-11-16T03:21:36.626Z,6.58
2016-11-16T03:21:58.346Z,6.57
2016-11-16T03:22:20.082Z,6.56
2016-11-16T03:22:41.800Z,6.57
2016-11-16T03:23:03.531Z,6.61
2016-11-16T03:23:25.293Z,6.63
2016-11-16T03:23:47.009Z,6.64
2016-11-16T03:24:08.745Z,6.61
2016-11-16T03:24:39.616Z,6.57
2016-11-16T03:25:10.495Z,6.60
2016-11-16T03:26:07.689Z,6.67
2016-11-16T03:26:38.594Z,6.63
2016-11-16T03:27:00.323Z,6.59
2016-11-16T03:27:22.037Z,6.57
2016-11-16T03:27:43.758Z,6.58
2016-11-16T03:28:05.477Z,6.59
2016-11-16T03:28:27.201Z,6.58
2016-11-16T03:28:48.917Z,6.58
2016-11-16T03:29:10.640Z,6.58
2016-11-16T03:29:32.356Z,6.60
2016-11-16T03:29:54.075Z,6.61
2016-11-16T03:30:15.807Z,6.61
2016-11-16T03:30:37.532Z,6.59
2016-11-16T03:30:59.244Z,6.60
2016-11-16T03:31:20.963Z,6.64
2016-11-16T03:31:42.688Z,6.64
2016-11-16T03:32:04.408Z,6.59
2016-11-16T03:32:26.132Z,6.60
2016-11-16T03:32:47.860Z,6.60
2016-11-16T03:33:09.581Z,6.59
2016-11-16T03:33:31.302Z,6.55
2016-11-16T03:33:53.027Z,6.56
2016-11-16T03:34:14.749Z,6.57
2016-11-16T03:34:36.470Z,6.61
2016-11-16T03:34:58.202Z,6.64
2016-11-16T03:35:19.930Z,6.62
2016-11-16T03:35:41.649Z,6.62
2016-11-16T03:36:03.364Z,6.62
2016-11-16T03:36:25.092Z,6.61
2016-11-16T03:36:46.815Z,6.60
2016-11-16T03:37:08.556Z,6.60
2016-11-16T03:37:30.279Z,6.63
2016-11-16T03:37:51.997Z,6.58
2016-11-16T03:38:13.731Z,6.61
2016-11-16T03:38:35.469Z,6.65
2016-11-16T03:38:57.203Z,6.67
2016-11-16T03:39:18.929Z,6.66
2016-11-16T03:39:40.641Z,6.63
2016-11-16T03:40:02.360Z,6.65
2016-11-16T03:40:24.087Z,6.65
2016-11-16T03:40:45.814Z,6.64
2016-11-16T03:41:07.686Z,6.61
2016-11-16T03:41:29.409Z,6.59
2016-11-16T03:41:51.137Z,6.64
2016-11-16T03:42:12.863Z,6.65
2016-11-16T03:42:34.583Z,6.67
2016-11-16T03:42:56.324Z,6.66
2016-11-16T03:43:18.052Z,6.64
2016-11-16T03:43:39.774Z,6.63
2016-11-16T03:44:01.493Z,6.64
2016-11-16T03:44:23.226Z,6.62
2016-11-16T03:44:44.946Z,6.64
2016-11-16T03:45:06.665Z,6.63
2016-11-16T03:45:28.395Z,6.63
2016-11-16T03:45:50.234Z,6.69
2016-11-16T03:46:11.954Z,6.67
2016-11-16T03:46:33.672Z,6.67
2016-11-16T03:46:55.390Z,6.65
2016-11-16T03:47:17.122Z,6.63
2016-11-16T03:47:38.843Z,6.63
2016-11-16T03:48:00.562Z,6.65
2016-11-16T03:48:22.277Z,6.68
2016-11-16T03:48:43.994Z,6.65
2016-11-16T03:49:05.727Z,6.63
2016-11-16T03:49:27.438Z,6.63
2016-11-16T03:49:49.168Z,6.63
2016-11-16T03:50:10.887Z,6.63
2016-11-16T03:50:32.733Z,6.63
2016-11-16T03:50:54.450Z,6.67
2016-11-16T03:51:16.173Z,6.67
2016-11-16T03:51:37.893Z,6.65
2016-11-16T03:51:59.615Z,6.68
2016-11-16T03:52:21.340Z,6.69
2016-11-16T03:52:43.082Z,6.72
2016-11-16T03:53:04.858Z,6.70
2016-11-16T03:53:26.572Z,6.72
2016-11-16T03:53:48.292Z,6.71
2016-11-16T03:54:10.013Z,6.66
2016-11-16T03:54:31.718Z,6.68
2016-11-16T03:54:53.439Z,6.67
2016-11-16T03:55:15.162Z,6.65
2016-11-16T03:55:36.886Z,6.64
2016-11-16T03:55:58.605Z,6.64
2016-11-16T03:56:20.392Z,6.68
2016-11-16T03:56:42.129Z,6.71
2016-11-16T03:57:03.865Z,6.68
2016-11-16T03:57:25.594Z,6.67
2016-11-16T03:57:47.354Z,6.71
2016-11-16T03:58:09.074Z,6.67
2016-11-16T03:58:30.798Z,6.66
2016-11-16T03:58:52.527Z,6.69
2016-11-16T03:59:14.253Z,6.71
2016-11-16T03:59:35.968Z,6.69
2016-11-16T03:59:57.695Z,6.69
2016-11-16T04:00:19.421Z,6.69
2016-11-16T04:00:41.155Z,6.72
2016-11-16T04:01:05.095Z,6.74
2016-11-16T04:01:26.860Z,6.73
2016-11-16T04:01:48.583Z,6.73
2016-11-16T04:02:10.302Z,6.72
2016-11-16T04:02:32.020Z,6.75
2016-11-16T04:02:53.738Z,6.75
2016-11-16T04:03:15.474Z,6.72
2016-11-16T04:03:37.199Z,6.71
2016-11-16T04:03:58.917Z,6.67
2016-11-16T04:04:20.656Z,6.71
2016-11-16T04:04:42.374Z,6.72
2016-11-16T04:05:04.097Z,6.73
2016-11-16T04:05:25.814Z,6.77
2016-11-16T04:05:47.547Z,6.77
2016-11-16T04:06:09.274Z,6.80
2016-11-16T04:06:31.012Z,6.81
2016-11-16T04:06:52.742Z,6.80
2016-11-16T04:07:14.453Z,6.81
2016-11-16T04:07:36.185Z,6.76
2016-11-16T04:07:57.899Z,6.77
2016-11-16T04:08:19.651Z,6.75
2016-11-16T04:08:41.367Z,6.79
2016-11-16T04:09:03.088Z,6.77
2016-11-16T04:09:24.806Z,6.75
2016-11-16T04:09:46.520Z,6.75
2016-11-16T04:10:08.246Z,6.81
2016-11-16T04:10:30.061Z,6.81
2016-11-16T04:10:51.786Z,6.86
2016-11-16T04:11:13.516Z,6.84
2016-11-16T04:11:35.234Z,6.82
2016-11-16T04:11:56.973Z,6.77
2016-11-16T04:12:18.689Z,6.81
2016-11-16T04:12:40.406Z,6.81
2016-11-16T04:13:02.134Z,6.82
2016-11-16T04:13:23.861Z,6.82
2016-11-16T04:13:45.588Z,6.81
2016-11-16T04:14:07.320Z,6.78
2016-11-16T04:14:29.030Z,6.76
2016-11-16T04:14:50.756Z,6.76
2016-11-16T04:15:12.585Z,6.74
2016-11-16T04:15:34.324Z,6.76
2016-11-16T04:15:56.040Z,6.80
2016-11-16T04:16:17.758Z,6.79
2016-11-16T04:16:39.479Z,6.78
2016-11-16T04:17:01.198Z,6.80
2016-11-16T04:17:22.919Z,6.76
2016-11-16T04:17:44.638Z,6.78
2016-11-16T04:18:06.368Z,6.80
2016-11-16T04:18:28.091Z,6.77
2016-11-16T04:18:49.810Z,6.84
2016-11-16T04:19:11.525Z,6.86
2016-11-16T04:19:33.244Z,6.80
2016-11-16T04:19:55.049Z,6.78
2016-11-16T04:20:16.784Z,6.80
2016-11-16T04:20:38.507Z,6.82
2016-11-16T04:21:00.227Z,6.85
2016-11-16T04:21:21.948Z,6.89
2016-11-16T04:21:43.665Z,6.89
2016-11-16T04:22:10.152Z,6.87
2016-11-16T04:22:31.870Z,6.82
2016-11-16T04:22:53.598Z,6.86
2016-11-16T04:23:15.332Z,6.86
2016-11-16T04:23:37.051Z,6.82
2016-11-16T04:23:58.770Z,6.81
2016-11-16T04:24:20.493Z,6.81
2016-11-16T04:24:42.209Z,6.83
2016-11-16T04:25:03.931Z,6.79
2016-11-16T04:25:25.669Z,6.85
2016-11-16T04:25:47.448Z,6.89
2016-11-16T04:26:09.167Z,6.85
2016-11-16T04:26:30.904Z,6.90
2016-11-16T04:26:52.625Z,6.89
2016-11-16T04:27:14.356Z,6.84
2016-11-16T04:27:36.084Z,6.87
2016-11-16T04:27:57.804Z,6.89
2016-11-16T04:28:19.516Z,6.91
2016-11-16T04:28:41.242Z,6.90
2016-11-16T04:29:02.971Z,6.86
2016-11-16T04:29:24.694Z,6.86
2016-11-16T04:29:46.499Z,6.88
2016-11-16T04:30:08.217Z,6.91
2016-11-16T04:30:29.930Z,6.88
2016-11-16T04:30:51.647Z,6.92
2016-11-16T04:31:13.389Z,6.93
2016-11-16T04:31:35.117Z,6.89
2016-11-16T04:31:56.829Z,6.86
2016-11-16T04:32:18.560Z,6.85
2016-11-16T04:32:40.338Z,6.87
2016-11-16T04:33:02.055Z,6.90
2016-11-16T04:33:23.774Z,6.93
2016-11-16T04:33:45.501Z,6.90
2016-11-16T04:34:07.222Z,6.89
2016-11-16T04:34:28.956Z,6.92
2016-11-16T04:34:50.693Z,6.93
2016-11-16T04:35:12.423Z,6.86
2016-11-16T04:35:34.148Z,6.85
2016-11-16T04:35:55.879Z,6.83
2016-11-16T04:36:17.598Z,6.87
2016-11-16T04:36:39.321Z,6.88
2016-11-16T04:37:01.062Z,6.89
2016-11-16T04:37:22.799Z,6.92
2016-11-16T04:37:44.539Z,6.84
2016-11-16T04:38:06.276Z,6.80
2016-11-16T04:38:28.008Z,6.86
2016-11-16T04:38:49.728Z,6.92
2016-11-16T04:39:11.451Z,6.89
2016-11-16T04:39:33.178Z,6.85
2016-11-16T04:39:54.896Z,6.86
2016-11-16T04:40:16.630Z,6.90
2016-11-16T04:40:38.348Z,6.87
2016-11-16T04:41:00.073Z,6.89
2016-11-16T04:41:21.865Z,6.90
2016-11-16T04:41:43.598Z,6.92
2016-11-16T04:42:05.324Z,6.94
2016-11-16T04:42:27.058Z,6.87
2016-11-16T04:42:48.827Z,6.86
2016-11-16T04:43:10.548Z,6.86
2016-11-16T04:43:32.268Z,6.88
2016-11-16T04:43:54.023Z,6.88
2016-11-16T04:44:15.744Z,6.89
2016-11-16T04:44:37.465Z,6.86
2016-11-16T04:44:59.212Z,6.89
2016-11-16T04:45:20.932Z,6.91
2016-11-16T04:45:42.660Z,6.91
2016-11-16T04:46:04.402Z,6.94
2016-11-16T04:46:26.091Z,6.95
2016-11-16T04:46:47.822Z,6.91
2016-11-16T04:47:09.550Z,6.94
2016-11-16T04:47:31.286Z,6.94
2016-11-16T04:47:53.016Z,6.95
2016-11-16T04:48:14.728Z,6.97
2016-11-16T04:48:36.445Z,6.96
2016-11-16T04:48:58.184Z,6.92
2016-11-16T04:49:19.905Z,6.92
2016-11-16T04:49:41.626Z,6.97
2016-11-16T04:50:03.363Z,6.98
2016-11-16T04:50:25.243Z,6.92
2016-11-16T04:50:46.959Z,6.93
2016-11-16T04:51:08.674Z,6.94
2016-11-16T04:51:30.403Z,6.94